This is the latest recevied weather packets stored in our database for station/object AE5EW. If no packets are shown the sender has not sent any weather packets the latest 10 day(s).
| Time | Temp. | Humidity | Pressure | Rain* | Wind** | Luminosity | Snow |
|---|---|---|---|---|---|---|---|
| 1787760117 | 31.67° C | 67% | 1018.3 hPa | 0 mm | - | - | - |
| 1787759814 | 31.11° C | 70% | 1018.3 hPa | 0 mm | - | - | - |
| 1787759509 | 31.67° C | 69% | 1018.6 hPa | 0 mm | - | - | - |
| 1787759205 | 31.11° C | 71% | 1018.6 hPa | 0 mm | - | - | - |
| 1787758904 | 30.56° C | 77% | 1018.8 hPa | 0 mm | - | - | - |
| 1787758599 | 30° C | 76% | 1018.7 hPa | 0 mm | - | - | - |
| 1787758298 | 30.56° C | 75% | 1018.8 hPa | 0 mm | - | - | - |
| 1787757993 | 30.56° C | 75% | 1018.9 hPa | 0 mm | - | - | - |
| 1787757690 | 30° C | 77% | 1018.9 hPa | 0 mm | - | - | - |
| 1787757389 | 29.44° C | 78% | 1018.8 hPa | 0 mm | - | - | - |
| 1787757085 | 29.44° C | 77% | 1018.7 hPa | 0 mm | - | - | - |
| 1787756784 | 29.44° C | 79% | 1018.8 hPa | 0 mm | - | - | - |
| 1787756480 | 28.89° C | 81% | 1018.6 hPa | 0 mm | - | - | - |
| 1787756178 | 28.89° C | 80% | 1018.6 hPa | 0 mm | - | - | - |
| 1787755873 | 28.33° C | 82% | 1018.7 hPa | 0 mm | - | - | - |
| 1787755573 | 28.33° C | 82% | 1018.7 hPa | 0 mm | - | - | - |
| 1787755268 | 29.44° C | 78% | 1018.8 hPa | 0 mm | - | - | - |
| 1787754967 | 28.33° C | 81% | 1018.8 hPa | 0 mm | - | - | - |
| 1787754661 | 27.22° C | 84% | 1018.6 hPa | 0 mm | - | - | - |
| 1787754359 | 27.78° C | 82% | 1018.5 hPa | 0 mm | - | - | - |
| 1787754054 | 27.22° C | 83% | 1018.5 hPa | 0 mm | - | - | - |
| 1787753754 | 27.22° C | 84% | 1018.4 hPa | 0 mm | - | - | - |
| 1787753453 | 27.22° C | 82% | 1018.6 hPa | 0 mm | - | - | - |
| 1787753152 | 27.22° C | 83% | 1018.4 hPa | 0 mm | - | - | - |
| 1787752847 | 27.22° C | 82% | 1018.7 hPa | 0 mm | - | - | - |
* Rain latest hour (hover to see other rain measurements)
** Current wind speed in m/s (hover to see current wind gust speed)